Main page
METAR-TAF:

METAR-TAF

Airports :

Fairfield Municipal Airport

Fairfield, Illinois, United States

latitude: 38-22-43N, longitude: 088-24-46W, elevation: 436 ft

Current weather observation

The report was made 33 minutes ago, at 11:15 UTC
Wind 6 mph from the South
Temperature 37°F
Humidity 70%
Pressure 30.13 in. Hg
Visibility: 10 miles
Broken clouds at a height of 6000 ft
Overcast at a height of 8000 ft

METAR: KFWC 231115Z AUTO 19005KT 10SM BKN060 OVC080 03/M02 A3013 RMK AO1 T00311022

Time: 05:48 (11:48 UTC)


TAF: missing

Weather observations and forecasts of more than 4000 airports (METAR and TAF reports).

The available stations are represented by yellow and red dots on the map.

Hover mouse over dot to see the name of the station.

Then click to see weather observations and forecasts.

To change the map : click on the green buttons with a black cross to zoom in, on the green button with a dash to zoom out, or on the green arrows for adjacent maps.


METAR-TAF: